sensor_id;sensor_type;location;lat;lon;timestamp;temperature;humidity
19340;HTU21D;9804;52.350;6.684;2022-07-23T00:01:13;19.10;-6.00
19340;HTU21D;9804;52.350;6.684;2022-07-23T00:03:39;19.01;-6.00
19340;HTU21D;9804;52.350;6.684;2022-07-23T00:06:04;18.89;-6.00
19340;HTU21D;9804;52.350;6.684;2022-07-23T00:08:30;18.89;-6.00
19340;HTU21D;9804;52.350;6.684;2022-07-23T00:10:55;18.74;-6.00
19340;HTU21D;9804;52.350;6.684;2022-07-23T00:13:20;18.56;-6.00
19340;HTU21D;9804;52.350;6.684;2022-07-23T00:15:46;18.46;-6.00
19340;HTU21D;9804;52.350;6.684;2022-07-23T00:18:11;18.35;-6.00
19340;HTU21D;9804;52.350;6.684;2022-07-23T00:20:36;18.30;-6.00
19340;HTU21D;9804;52.350;6.684;2022-07-23T00:23:02;18.19;-6.00
19340;HTU21D;9804;52.350;6.684;2022-07-23T00:25:27;18.10;-6.00
19340;HTU21D;9804;52.350;6.684;2022-07-23T00:27:53;18.12;-6.00
19340;HTU21D;9804;52.350;6.684;2022-07-23T00:30:18;18.10;-6.00
19340;HTU21D;9804;52.350;6.684;2022-07-23T00:32:48;18.11;-6.00
19340;HTU21D;9804;52.350;6.684;2022-07-23T00:35:15;17.99;-6.00
19340;HTU21D;9804;52.350;6.684;2022-07-23T00:37:40;17.92;-6.00
19340;HTU21D;9804;52.350;6.684;2022-07-23T00:40:06;17.80;-6.00
19340;HTU21D;9804;52.350;6.684;2022-07-23T00:42:32;17.78;-6.00
19340;HTU21D;9804;52.350;6.684;2022-07-23T00:44:58;17.62;-6.00
19340;HTU21D;9804;52.350;6.684;2022-07-23T00:47:23;17.53;-6.00
19340;HTU21D;9804;52.350;6.684;2022-07-23T00:49:48;17.52;-6.00
19340;HTU21D;9804;52.350;6.684;2022-07-23T00:52:14;17.47;-6.00
19340;HTU21D;9804;52.350;6.684;2022-07-23T00:54:41;17.44;-6.00
19340;HTU21D;9804;52.350;6.684;2022-07-23T00:57:06;17.29;-6.00
19340;HTU21D;9804;52.350;6.684;2022-07-23T00:59:31;17.30;-6.00
19340;HTU21D;9804;52.350;6.684;2022-07-23T01:01:57;17.32;-6.00
19340;HTU21D;9804;52.350;6.684;2022-07-23T01:04:22;17.29;-6.00
19340;HTU21D;9804;52.350;6.684;2022-07-23T01:06:48;17.29;-6.00
19340;HTU21D;9804;52.350;6.684;2022-07-23T01:09:13;17.18;-6.00
19340;HTU21D;9804;52.350;6.684;2022-07-23T01:11:39;17.17;-6.00
19340;HTU21D;9804;52.350;6.684;2022-07-23T01:14:14;17.11;-6.00
19340;HTU21D;9804;52.350;6.684;2022-07-23T01:16:40;17.01;-6.00
19340;HTU21D;9804;52.350;6.684;2022-07-23T01:19:06;17.02;-6.00
19340;HTU21D;9804;52.350;6.684;2022-07-23T01:21:51;16.95;-6.00
19340;HTU21D;9804;52.350;6.684;2022-07-23T01:24:17;16.95;-6.00
19340;HTU21D;9804;52.350;6.684;2022-07-23T01:26:46;16.86;-6.00
19340;HTU21D;9804;52.350;6.684;2022-07-23T01:29:13;16.80;-6.00
19340;HTU21D;9804;52.350;6.684;2022-07-23T01:31:39;16.77;-6.00
19340;HTU21D;9804;52.350;6.684;2022-07-23T01:34:04;16.76;-6.00
19340;HTU21D;9804;52.350;6.684;2022-07-23T01:36:32;16.78;-6.00
19340;HTU21D;9804;52.350;6.684;2022-07-23T01:38:57;16.66;-6.00
19340;HTU21D;9804;52.350;6.684;2022-07-23T01:41:23;16.65;-6.00
19340;HTU21D;9804;52.350;6.684;2022-07-23T01:43:48;16.60;-6.00
19340;HTU21D;9804;52.350;6.684;2022-07-23T01:46:14;16.54;-6.00
19340;HTU21D;9804;52.350;6.684;2022-07-23T01:48:39;16.50;-6.00
19340;HTU21D;9804;52.350;6.684;2022-07-23T01:51:05;16.55;-6.00
19340;HTU21D;9804;52.350;6.684;2022-07-23T01:53:30;16.52;-6.00
19340;HTU21D;9804;52.350;6.684;2022-07-23T01:55:59;16.59;-6.00
19340;HTU21D;9804;52.350;6.684;2022-07-23T01:58:25;16.50;-6.00
19340;HTU21D;9804;52.350;6.684;2022-07-23T02:00:51;16.56;-6.00
19340;HTU21D;9804;52.350;6.684;2022-07-23T02:03:16;16.50;-6.00
19340;HTU21D;9804;52.350;6.684;2022-07-23T02:05:41;16.43;-6.00
19340;HTU21D;9804;52.350;6.684;2022-07-23T02:08:07;16.43;-6.00
19340;HTU21D;9804;52.350;6.684;2022-07-23T02:10:32;16.37;-6.00
19340;HTU21D;9804;52.350;6.684;2022-07-23T02:12:57;16.29;-6.00
19340;HTU21D;9804;52.350;6.684;2022-07-23T02:15:23;16.31;-6.00
19340;HTU21D;9804;52.350;6.684;2022-07-23T02:17:48;16.25;-6.00
19340;HTU21D;9804;52.350;6.684;2022-07-23T02:20:14;16.22;-6.00
19340;HTU21D;9804;52.350;6.684;2022-07-23T02:22:40;16.18;-6.00
19340;HTU21D;9804;52.350;6.684;2022-07-23T02:25:06;16.27;-6.00
19340;HTU21D;9804;52.350;6.684;2022-07-23T02:27:32;16.17;-6.00
19340;HTU21D;9804;52.350;6.684;2022-07-23T02:29:58;16.14;-6.00
19340;HTU21D;9804;52.350;6.684;2022-07-23T02:32:24;16.13;-6.00
19340;HTU21D;9804;52.350;6.684;2022-07-23T02:34:50;16.20;-6.00
19340;HTU21D;9804;52.350;6.684;2022-07-23T02:37:15;16.18;-6.00
19340;HTU21D;9804;52.350;6.684;2022-07-23T02:39:41;16.14;-6.00
19340;HTU21D;9804;52.350;6.684;2022-07-23T02:42:06;16.17;-6.00
19340;HTU21D;9804;52.350;6.684;2022-07-23T02:44:32;16.14;-6.00
19340;HTU21D;9804;52.350;6.684;2022-07-23T02:46:57;16.06;-6.00
19340;HTU21D;9804;52.350;6.684;2022-07-23T02:49:22;16.02;-6.00
19340;HTU21D;9804;52.350;6.684;2022-07-23T02:51:48;16.02;-6.00
19340;HTU21D;9804;52.350;6.684;2022-07-23T02:54:13;16.02;-6.00
19340;HTU21D;9804;52.350;6.684;2022-07-23T02:56:38;16.03;-6.00
19340;HTU21D;9804;52.350;6.684;2022-07-23T02:59:04;15.99;-6.00
19340;HTU21D;9804;52.350;6.684;2022-07-23T03:01:29;15.96;-6.00
19340;HTU21D;9804;52.350;6.684;2022-07-23T03:03:55;15.90;-6.00
19340;HTU21D;9804;52.350;6.684;2022-07-23T03:06:20;15.92;-6.00
19340;HTU21D;9804;52.350;6.684;2022-07-23T03:08:45;15.93;-6.00
19340;HTU21D;9804;52.350;6.684;2022-07-23T03:11:11;15.86;-6.00
19340;HTU21D;9804;52.350;6.684;2022-07-23T03:13:40;15.86;-6.00
19340;HTU21D;9804;52.350;6.684;2022-07-23T03:16:05;15.82;-6.00
19340;HTU21D;9804;52.350;6.684;2022-07-23T03:18:31;15.86;-6.00
19340;HTU21D;9804;52.350;6.684;2022-07-23T03:20:56;15.78;-6.00
19340;HTU21D;9804;52.350;6.684;2022-07-23T03:23:22;15.77;-6.00
19340;HTU21D;9804;52.350;6.684;2022-07-23T03:25:47;15.74;-6.00
19340;HTU21D;9804;52.350;6.684;2022-07-23T03:28:14;15.74;-6.00
19340;HTU21D;9804;52.350;6.684;2022-07-23T03:30:41;15.78;-6.00
19340;HTU21D;9804;52.350;6.684;2022-07-23T03:33:06;15.82;-6.00
19340;HTU21D;9804;52.350;6.684;2022-07-23T03:35:31;15.78;-6.00
19340;HTU21D;9804;52.350;6.684;2022-07-23T03:37:57;15.72;-6.00
19340;HTU21D;9804;52.350;6.684;2022-07-23T03:40:22;15.61;-6.00
19340;HTU21D;9804;52.350;6.684;2022-07-23T03:42:47;15.70;-6.00
19340;HTU21D;9804;52.350;6.684;2022-07-23T03:45:13;15.74;-6.00
19340;HTU21D;9804;52.350;6.684;2022-07-23T03:47:38;15.69;-6.00
19340;HTU21D;9804;52.350;6.684;2022-07-23T03:50:04;15.59;-6.00
19340;HTU21D;9804;52.350;6.684;2022-07-23T03:52:30;15.66;-6.00
19340;HTU21D;9804;52.350;6.684;2022-07-23T03:54:55;15.73;-6.00
19340;HTU21D;9804;52.350;6.684;2022-07-23T03:57:20;15.77;-6.00
19340;HTU21D;9804;52.350;6.684;2022-07-23T03:59:46;15.77;-6.00
19340;HTU21D;9804;52.350;6.684;2022-07-23T04:02:11;15.78;-6.00
19340;HTU21D;9804;52.350;6.684;2022-07-23T04:04:36;15.77;-6.00
19340;HTU21D;9804;52.350;6.684;2022-07-23T04:07:02;15.71;-6.00
19340;HTU21D;9804;52.350;6.684;2022-07-23T04:09:27;15.65;-6.00
19340;HTU21D;9804;52.350;6.684;2022-07-23T04:11:53;15.73;-6.00
19340;HTU21D;9804;52.350;6.684;2022-07-23T04:14:18;15.83;-6.00
19340;HTU21D;9804;52.350;6.684;2022-07-23T04:16:43;15.82;-6.00
19340;HTU21D;9804;52.350;6.684;2022-07-23T04:19:09;15.76;-6.00
19340;HTU21D;9804;52.350;6.684;2022-07-23T04:21:34;15.75;-6.00
19340;HTU21D;9804;52.350;6.684;2022-07-23T04:23:59;15.84;-6.00
19340;HTU21D;9804;52.350;6.684;2022-07-23T04:26:25;15.99;-6.00
19340;HTU21D;9804;52.350;6.684;2022-07-23T04:28:50;16.42;-6.00
19340;HTU21D;9804;52.350;6.684;2022-07-23T04:31:15;16.62;-6.00
19340;HTU21D;9804;52.350;6.684;2022-07-23T04:33:40;16.67;-6.00
19340;HTU21D;9804;52.350;6.684;2022-07-23T04:36:06;16.73;-6.00
19340;HTU21D;9804;52.350;6.684;2022-07-23T04:38:31;16.64;-6.00
19340;HTU21D;9804;52.350;6.684;2022-07-23T04:40:58;16.67;-6.00
19340;HTU21D;9804;52.350;6.684;2022-07-23T04:43:23;16.54;-6.00
19340;HTU21D;9804;52.350;6.684;2022-07-23T04:45:48;16.49;-6.00
19340;HTU21D;9804;52.350;6.684;2022-07-23T04:48:14;16.58;-6.00
19340;HTU21D;9804;52.350;6.684;2022-07-23T04:50:39;16.63;-6.00
19340;HTU21D;9804;52.350;6.684;2022-07-23T04:53:04;16.66;-6.00
19340;HTU21D;9804;52.350;6.684;2022-07-23T04:55:30;16.64;-6.00
19340;HTU21D;9804;52.350;6.684;2022-07-23T04:57:55;16.79;-6.00
19340;HTU21D;9804;52.350;6.684;2022-07-23T05:00:21;16.90;-6.00
19340;HTU21D;9804;52.350;6.684;2022-07-23T05:02:46;17.02;-6.00
19340;HTU21D;9804;52.350;6.684;2022-07-23T05:05:11;17.10;-6.00
19340;HTU21D;9804;52.350;6.684;2022-07-23T05:07:37;17.34;-6.00
19340;HTU21D;9804;52.350;6.684;2022-07-23T05:10:02;17.52;-6.00
19340;HTU21D;9804;52.350;6.684;2022-07-23T05:12:28;17.50;-6.00
19340;HTU21D;9804;52.350;6.684;2022-07-23T05:14:53;17.70;-6.00
19340;HTU21D;9804;52.350;6.684;2022-07-23T05:17:19;17.97;-6.00
19340;HTU21D;9804;52.350;6.684;2022-07-23T05:19:44;18.03;-6.00
19340;HTU21D;9804;52.350;6.684;2022-07-23T05:22:09;18.03;-6.00
19340;HTU21D;9804;52.350;6.684;2022-07-23T05:24:35;18.11;-6.00
19340;HTU21D;9804;52.350;6.684;2022-07-23T05:27:00;18.23;-6.00
19340;HTU21D;9804;52.350;6.684;2022-07-23T05:29:25;18.26;-6.00
19340;HTU21D;9804;52.350;6.684;2022-07-23T05:31:51;18.34;-6.00
19340;HTU21D;9804;52.350;6.684;2022-07-23T05:34:16;18.48;-6.00
19340;HTU21D;9804;52.350;6.684;2022-07-23T05:36:41;18.46;-6.00
19340;HTU21D;9804;52.350;6.684;2022-07-23T05:39:07;18.50;-6.00
19340;HTU21D;9804;52.350;6.684;2022-07-23T05:41:32;18.74;-6.00
19340;HTU21D;9804;52.350;6.684;2022-07-23T05:43:57;18.56;-6.00
19340;HTU21D;9804;52.350;6.684;2022-07-23T05:46:23;18.62;-6.00
19340;HTU21D;9804;52.350;6.684;2022-07-23T05:48:48;18.66;-6.00
19340;HTU21D;9804;52.350;6.684;2022-07-23T05:51:21;18.52;-6.00
19340;HTU21D;9804;52.350;6.684;2022-07-23T05:53:47;18.46;-6.00
19340;HTU21D;9804;52.350;6.684;2022-07-23T05:56:13;18.77;-6.00
19340;HTU21D;9804;52.350;6.684;2022-07-23T05:58:38;18.91;-6.00
19340;HTU21D;9804;52.350;6.684;2022-07-23T06:01:03;18.87;-6.00
19340;HTU21D;9804;52.350;6.684;2022-07-23T06:03:29;18.99;-6.00
19340;HTU21D;9804;52.350;6.684;2022-07-23T06:05:54;19.20;-6.00
19340;HTU21D;9804;52.350;6.684;2022-07-23T06:08:19;19.36;-6.00
19340;HTU21D;9804;52.350;6.684;2022-07-23T06:10:45;19.25;-6.00
19340;HTU21D;9804;52.350;6.684;2022-07-23T06:13:10;18.51;-6.00
19340;HTU21D;9804;52.350;6.684;2022-07-23T06:15:35;19.23;-6.00
19340;HTU21D;9804;52.350;6.684;2022-07-23T06:18:01;19.50;-6.00
19340;HTU21D;9804;52.350;6.684;2022-07-23T06:20:26;19.39;-6.00
19340;HTU21D;9804;52.350;6.684;2022-07-23T06:22:51;19.11;-6.00
19340;HTU21D;9804;52.350;6.684;2022-07-23T06:25:17;19.02;-6.00
19340;HTU21D;9804;52.350;6.684;2022-07-23T06:27:42;19.65;-6.00
19340;HTU21D;9804;52.350;6.684;2022-07-23T06:30:08;19.84;-6.00
19340;HTU21D;9804;52.350;6.684;2022-07-23T06:32:35;19.81;-6.00
19340;HTU21D;9804;52.350;6.684;2022-07-23T06:35:00;19.65;-6.00
19340;HTU21D;9804;52.350;6.684;2022-07-23T06:37:26;19.88;-6.00
19340;HTU21D;9804;52.350;6.684;2022-07-23T06:39:51;20.11;-6.00
19340;HTU21D;9804;52.350;6.684;2022-07-23T06:42:16;20.14;-6.00
19340;HTU21D;9804;52.350;6.684;2022-07-23T06:44:42;19.87;-6.00
19340;HTU21D;9804;52.350;6.684;2022-07-23T06:47:07;20.09;-6.00
19340;HTU21D;9804;52.350;6.684;2022-07-23T06:49:33;19.91;-6.00
19340;HTU21D;9804;52.350;6.684;2022-07-23T06:51:58;20.20;-6.00
19340;HTU21D;9804;52.350;6.684;2022-07-23T06:54:24;20.37;-6.00
19340;HTU21D;9804;52.350;6.684;2022-07-23T06:56:49;20.21;-6.00
19340;HTU21D;9804;52.350;6.684;2022-07-23T06:59:15;20.10;-6.00
19340;HTU21D;9804;52.350;6.684;2022-07-23T07:01:40;20.20;-6.00
19340;HTU21D;9804;52.350;6.684;2022-07-23T07:04:06;20.18;-6.00
19340;HTU21D;9804;52.350;6.684;2022-07-23T07:06:31;19.88;-6.00
19340;HTU21D;9804;52.350;6.684;2022-07-23T07:08:57;19.96;-6.00
19340;HTU21D;9804;52.350;6.684;2022-07-23T07:11:22;20.00;-6.00
19340;HTU21D;9804;52.350;6.684;2022-07-23T07:13:49;20.09;-6.00
19340;HTU21D;9804;52.350;6.684;2022-07-23T07:16:14;19.92;-6.00
19340;HTU21D;9804;52.350;6.684;2022-07-23T07:18:40;20.24;-6.00
19340;HTU21D;9804;52.350;6.684;2022-07-23T07:21:05;19.97;-6.00
19340;HTU21D;9804;52.350;6.684;2022-07-23T07:23:30;20.20;-6.00
19340;HTU21D;9804;52.350;6.684;2022-07-23T07:25:56;20.26;-6.00
19340;HTU21D;9804;52.350;6.684;2022-07-23T07:28:21;20.94;-6.00
19340;HTU21D;9804;52.350;6.684;2022-07-23T07:30:46;20.57;-6.00
19340;HTU21D;9804;52.350;6.684;2022-07-23T07:33:12;20.85;-6.00
19340;HTU21D;9804;52.350;6.684;2022-07-23T07:35:37;21.11;-6.00
19340;HTU21D;9804;52.350;6.684;2022-07-23T07:38:02;21.10;-6.00
19340;HTU21D;9804;52.350;6.684;2022-07-23T07:40:28;21.10;-6.00
19340;HTU21D;9804;52.350;6.684;2022-07-23T07:42:54;21.46;-6.00
19340;HTU21D;9804;52.350;6.684;2022-07-23T07:45:21;21.25;-6.00
19340;HTU21D;9804;52.350;6.684;2022-07-23T07:47:46;20.74;-6.00
19340;HTU21D;9804;52.350;6.684;2022-07-23T07:50:12;20.85;-6.00
19340;HTU21D;9804;52.350;6.684;2022-07-23T07:52:37;20.98;-6.00
19340;HTU21D;9804;52.350;6.684;2022-07-23T07:55:04;21.51;-6.00
19340;HTU21D;9804;52.350;6.684;2022-07-23T07:57:30;21.67;-6.00
19340;HTU21D;9804;52.350;6.684;2022-07-23T07:59:55;21.54;-6.00
19340;HTU21D;9804;52.350;6.684;2022-07-23T08:02:20;21.67;-6.00
19340;HTU21D;9804;52.350;6.684;2022-07-23T08:04:46;21.90;-6.00
19340;HTU21D;9804;52.350;6.684;2022-07-23T08:07:11;21.72;-6.00
19340;HTU21D;9804;52.350;6.684;2022-07-23T08:09:37;21.98;-6.00
19340;HTU21D;9804;52.350;6.684;2022-07-23T08:12:02;21.87;-6.00
19340;HTU21D;9804;52.350;6.684;2022-07-23T08:14:27;21.90;-6.00
19340;HTU21D;9804;52.350;6.684;2022-07-23T08:16:53;22.10;-6.00
19340;HTU21D;9804;52.350;6.684;2022-07-23T08:19:18;21.89;-6.00
19340;HTU21D;9804;52.350;6.684;2022-07-23T08:21:43;22.08;-6.00
19340;HTU21D;9804;52.350;6.684;2022-07-23T08:24:09;22.28;-6.00
19340;HTU21D;9804;52.350;6.684;2022-07-23T08:26:34;21.83;-6.00
19340;HTU21D;9804;52.350;6.684;2022-07-23T08:28:59;21.96;-6.00
19340;HTU21D;9804;52.350;6.684;2022-07-23T08:31:25;22.09;-6.00
19340;HTU21D;9804;52.350;6.684;2022-07-23T08:33:50;22.21;-6.00
19340;HTU21D;9804;52.350;6.684;2022-07-23T08:36:17;22.51;-6.00
19340;HTU21D;9804;52.350;6.684;2022-07-23T08:38:42;22.44;-6.00
19340;HTU21D;9804;52.350;6.684;2022-07-23T08:41:09;22.50;-6.00
19340;HTU21D;9804;52.350;6.684;2022-07-23T08:43:34;22.38;-6.00
19340;HTU21D;9804;52.350;6.684;2022-07-23T08:46:02;21.87;-6.00
19340;HTU21D;9804;52.350;6.684;2022-07-23T08:48:30;22.22;-6.00
19340;HTU21D;9804;52.350;6.684;2022-07-23T08:50:57;22.43;-6.00
19340;HTU21D;9804;52.350;6.684;2022-07-23T08:53:24;22.63;-6.00
19340;HTU21D;9804;52.350;6.684;2022-07-23T08:55:52;23.12;-6.00
19340;HTU21D;9804;52.350;6.684;2022-07-23T08:58:18;23.28;-6.00
19340;HTU21D;9804;52.350;6.684;2022-07-23T09:00:44;23.45;-6.00
19340;HTU21D;9804;52.350;6.684;2022-07-23T09:03:27;23.71;-6.00
19340;HTU21D;9804;52.350;6.684;2022-07-23T09:05:53;24.06;-6.00
19340;HTU21D;9804;52.350;6.684;2022-07-23T09:08:22;24.25;-6.00
19340;HTU21D;9804;52.350;6.684;2022-07-23T09:10:49;22.80;-6.00
19340;HTU21D;9804;52.350;6.684;2022-07-23T09:13:39;22.42;-6.00
19340;HTU21D;9804;52.350;6.684;2022-07-23T09:16:14;23.20;-6.00
19340;HTU21D;9804;52.350;6.684;2022-07-23T09:18:48;23.31;-6.00
19340;HTU21D;9804;52.350;6.684;2022-07-23T09:21:35;23.49;-6.00
19340;HTU21D;9804;52.350;6.684;2022-07-23T09:24:05;23.72;-6.00
19340;HTU21D;9804;52.350;6.684;2022-07-23T09:26:45;23.31;-6.00
19340;HTU21D;9804;52.350;6.684;2022-07-23T09:29:13;23.75;-6.00
19340;HTU21D;9804;52.350;6.684;2022-07-23T09:31:58;23.84;-6.00
19340;HTU21D;9804;52.350;6.684;2022-07-23T09:34:30;24.26;-6.00
19340;HTU21D;9804;52.350;6.684;2022-07-23T09:37:08;24.59;-6.00
19340;HTU21D;9804;52.350;6.684;2022-07-23T09:39:34;24.89;-6.00
19340;HTU21D;9804;52.350;6.684;2022-07-23T09:42:30;24.72;-6.00
19340;HTU21D;9804;52.350;6.684;2022-07-23T09:44:57;23.98;-6.00
19340;HTU21D;9804;52.350;6.684;2022-07-23T09:47:25;24.60;-6.00
19340;HTU21D;9804;52.350;6.684;2022-07-23T09:50:05;25.21;-6.00
19340;HTU21D;9804;52.350;6.684;2022-07-23T09:52:36;25.02;-6.00
19340;HTU21D;9804;52.350;6.684;2022-07-23T09:55:05;23.73;-6.00
19340;HTU21D;9804;52.350;6.684;2022-07-23T09:57:31;23.88;-6.00
19340;HTU21D;9804;52.350;6.684;2022-07-23T10:00:00;24.54;-6.00
19340;HTU21D;9804;52.350;6.684;2022-07-23T10:02:28;24.88;-6.00
19340;HTU21D;9804;52.350;6.684;2022-07-23T10:04:54;24.45;-6.00
19340;HTU21D;9804;52.350;6.684;2022-07-23T10:07:22;23.82;-6.00
19340;HTU21D;9804;52.350;6.684;2022-07-23T10:09:50;24.71;-6.00
19340;HTU21D;9804;52.350;6.684;2022-07-23T10:12:18;24.40;-6.00
19340;HTU21D;9804;52.350;6.684;2022-07-23T10:15:04;24.06;-6.00
19340;HTU21D;9804;52.350;6.684;2022-07-23T10:17:31;24.86;-6.00
19340;HTU21D;9804;52.350;6.684;2022-07-23T10:19:56;25.37;-6.00
19340;HTU21D;9804;52.350;6.684;2022-07-23T10:25:18;24.06;-6.00
19340;HTU21D;9804;52.350;6.684;2022-07-23T10:27:51;24.41;-6.00
19340;HTU21D;9804;52.350;6.684;2022-07-23T10:30:39;24.48;-6.00
19340;HTU21D;9804;52.350;6.684;2022-07-23T10:36:19;24.10;-6.00
19340;HTU21D;9804;52.350;6.684;2022-07-23T10:38:52;23.85;-6.00
19340;HTU21D;9804;52.350;6.684;2022-07-23T10:41:37;24.14;-6.00
19340;HTU21D;9804;52.350;6.684;2022-07-23T10:44:09;24.43;-6.00
19340;HTU21D;9804;52.350;6.684;2022-07-23T10:46:35;24.73;-6.00
19340;HTU21D;9804;52.350;6.684;2022-07-23T10:49:30;24.05;-6.00
19340;HTU21D;9804;52.350;6.684;2022-07-23T10:54:44;24.62;-6.00
19340;HTU21D;9804;52.350;6.684;2022-07-23T10:57:12;24.46;-6.00
19340;HTU21D;9804;52.350;6.684;2022-07-23T11:02:35;24.88;-6.00
19340;HTU21D;9804;52.350;6.684;2022-07-23T11:07:29;25.06;-6.00
19340;HTU21D;9804;52.350;6.684;2022-07-23T11:09:54;25.39;-6.00
19340;HTU21D;9804;52.350;6.684;2022-07-23T11:14:59;25.47;-6.00
19340;HTU21D;9804;52.350;6.684;2022-07-23T11:17:25;25.08;-6.00
19340;HTU21D;9804;52.350;6.684;2022-07-23T11:25:03;26.04;-6.00
19340;HTU21D;9804;52.350;6.684;2022-07-23T11:27:39;25.37;-6.00
19340;HTU21D;9804;52.350;6.684;2022-07-23T11:30:05;24.74;-6.00
19340;HTU21D;9804;52.350;6.684;2022-07-23T11:32:41;24.71;-6.00
19340;HTU21D;9804;52.350;6.684;2022-07-23T11:35:24;25.48;-6.00
19340;HTU21D;9804;52.350;6.684;2022-07-23T11:37:51;26.23;-6.00
19340;HTU21D;9804;52.350;6.684;2022-07-23T11:40:24;26.52;-6.00
19340;HTU21D;9804;52.350;6.684;2022-07-23T11:43:30;26.12;-6.00
19340;HTU21D;9804;52.350;6.684;2022-07-23T11:45:51;26.70;-6.00
19340;HTU21D;9804;52.350;6.684;2022-07-23T11:48:20;26.40;-6.00
19340;HTU21D;9804;52.350;6.684;2022-07-23T11:50:46;25.86;-6.00
19340;HTU21D;9804;52.350;6.684;2022-07-23T11:53:12;26.11;-6.00
19340;HTU21D;9804;52.350;6.684;2022-07-23T11:55:38;26.21;-6.00
19340;HTU21D;9804;52.350;6.684;2022-07-23T11:58:03;25.58;-6.00
19340;HTU21D;9804;52.350;6.684;2022-07-23T12:00:30;25.50;-6.00
19340;HTU21D;9804;52.350;6.684;2022-07-23T12:02:59;25.62;-6.00
19340;HTU21D;9804;52.350;6.684;2022-07-23T12:05:28;25.76;-6.00
19340;HTU21D;9804;52.350;6.684;2022-07-23T12:07:55;25.36;-6.00
19340;HTU21D;9804;52.350;6.684;2022-07-23T12:12:53;26.16;-6.00
19340;HTU21D;9804;52.350;6.684;2022-07-23T12:15:26;26.05;-6.00
19340;HTU21D;9804;52.350;6.684;2022-07-23T12:17:52;26.36;-6.00
19340;HTU21D;9804;52.350;6.684;2022-07-23T12:20:22;26.25;-6.00
19340;HTU21D;9804;52.350;6.684;2022-07-23T12:22:50;26.50;-6.00
19340;HTU21D;9804;52.350;6.684;2022-07-23T12:25:19;26.22;-6.00
19340;HTU21D;9804;52.350;6.684;2022-07-23T12:27:45;26.04;-6.00
19340;HTU21D;9804;52.350;6.684;2022-07-23T12:30:25;25.49;-6.00
19340;HTU21D;9804;52.350;6.684;2022-07-23T12:32:53;25.68;-6.00
19340;HTU21D;9804;52.350;6.684;2022-07-23T12:35:20;25.20;-6.00
19340;HTU21D;9804;52.350;6.684;2022-07-23T12:37:47;25.40;-6.00
19340;HTU21D;9804;52.350;6.684;2022-07-23T12:40:26;25.89;-6.00
19340;HTU21D;9804;52.350;6.684;2022-07-23T12:43:00;25.82;-6.00
19340;HTU21D;9804;52.350;6.684;2022-07-23T12:45:27;25.92;-6.00
19340;HTU21D;9804;52.350;6.684;2022-07-23T12:50:41;25.87;-6.00
19340;HTU21D;9804;52.350;6.684;2022-07-23T12:53:10;26.07;-6.00
19340;HTU21D;9804;52.350;6.684;2022-07-23T12:55:36;25.84;-6.00
19340;HTU21D;9804;52.350;6.684;2022-07-23T12:58:10;25.91;-6.00
19340;HTU21D;9804;52.350;6.684;2022-07-23T13:03:33;26.28;-6.00
19340;HTU21D;9804;52.350;6.684;2022-07-23T13:06:01;26.86;-6.00
19340;HTU21D;9804;52.350;6.684;2022-07-23T13:08:28;27.50;-6.00
19340;HTU21D;9804;52.350;6.684;2022-07-23T13:10:55;27.28;-6.00
19340;HTU21D;9804;52.350;6.684;2022-07-23T13:13:23;27.55;-6.00
19340;HTU21D;9804;52.350;6.684;2022-07-23T13:15:49;27.84;-6.00
19340;HTU21D;9804;52.350;6.684;2022-07-23T13:18:15;27.73;-6.00
19340;HTU21D;9804;52.350;6.684;2022-07-23T13:20:42;26.69;-6.00
19340;HTU21D;9804;52.350;6.684;2022-07-23T13:23:07;26.25;-6.00
19340;HTU21D;9804;52.350;6.684;2022-07-23T13:25:33;26.83;-6.00
19340;HTU21D;9804;52.350;6.684;2022-07-23T13:27:59;27.63;-6.00
19340;HTU21D;9804;52.350;6.684;2022-07-23T13:30:24;27.72;-6.00
19340;HTU21D;9804;52.350;6.684;2022-07-23T13:32:50;27.74;-6.00
19340;HTU21D;9804;52.350;6.684;2022-07-23T13:35:15;26.16;-6.00
19340;HTU21D;9804;52.350;6.684;2022-07-23T13:37:40;26.09;-6.00
19340;HTU21D;9804;52.350;6.684;2022-07-23T13:40:07;26.99;-6.00
19340;HTU21D;9804;52.350;6.684;2022-07-23T13:42:32;27.47;-6.00
19340;HTU21D;9804;52.350;6.684;2022-07-23T13:44:57;27.94;-6.00
19340;HTU21D;9804;52.350;6.684;2022-07-23T13:47:23;27.37;-6.00
19340;HTU21D;9804;52.350;6.684;2022-07-23T13:49:48;27.46;-6.00
19340;HTU21D;9804;52.350;6.684;2022-07-23T13:52:13;27.17;-6.00
19340;HTU21D;9804;52.350;6.684;2022-07-23T13:54:39;27.68;-6.00
19340;HTU21D;9804;52.350;6.684;2022-07-23T13:57:04;28.17;-6.00
19340;HTU21D;9804;52.350;6.684;2022-07-23T13:59:29;27.65;-6.00
19340;HTU21D;9804;52.350;6.684;2022-07-23T14:01:55;27.86;-6.00
19340;HTU21D;9804;52.350;6.684;2022-07-23T14:04:21;28.17;-6.00
19340;HTU21D;9804;52.350;6.684;2022-07-23T14:06:47;27.70;-6.00
19340;HTU21D;9804;52.350;6.684;2022-07-23T14:09:12;27.08;-6.00
19340;HTU21D;9804;52.350;6.684;2022-07-23T14:11:38;28.00;-6.00
19340;HTU21D;9804;52.350;6.684;2022-07-23T14:14:04;28.69;-6.00
19340;HTU21D;9804;52.350;6.684;2022-07-23T14:16:29;28.09;-6.00
19340;HTU21D;9804;52.350;6.684;2022-07-23T14:18:55;27.85;-6.00
19340;HTU21D;9804;52.350;6.684;2022-07-23T14:21:20;27.54;-6.00
19340;HTU21D;9804;52.350;6.684;2022-07-23T14:23:45;27.55;-6.00
19340;HTU21D;9804;52.350;6.684;2022-07-23T14:26:11;27.72;-6.00
19340;HTU21D;9804;52.350;6.684;2022-07-23T14:28:36;27.30;-6.00
19340;HTU21D;9804;52.350;6.684;2022-07-23T14:31:02;27.51;-6.00
19340;HTU21D;9804;52.350;6.684;2022-07-23T14:33:27;28.52;-6.00
19340;HTU21D;9804;52.350;6.684;2022-07-23T14:35:52;28.45;-6.00
19340;HTU21D;9804;52.350;6.684;2022-07-23T14:38:18;28.90;-6.00
19340;HTU21D;9804;52.350;6.684;2022-07-23T14:40:43;28.97;-6.00
19340;HTU21D;9804;52.350;6.684;2022-07-23T14:43:09;28.42;-6.00
19340;HTU21D;9804;52.350;6.684;2022-07-23T14:45:34;29.04;-6.00
19340;HTU21D;9804;52.350;6.684;2022-07-23T14:48:00;28.92;-6.00
19340;HTU21D;9804;52.350;6.684;2022-07-23T14:50:27;28.23;-6.00
19340;HTU21D;9804;52.350;6.684;2022-07-23T14:52:53;28.24;-6.00
19340;HTU21D;9804;52.350;6.684;2022-07-23T14:55:18;27.27;-6.00
19340;HTU21D;9804;52.350;6.684;2022-07-23T14:57:43;27.76;-6.00
19340;HTU21D;9804;52.350;6.684;2022-07-23T15:00:09;28.37;-6.00
19340;HTU21D;9804;52.350;6.684;2022-07-23T15:02:35;28.88;-6.00
19340;HTU21D;9804;52.350;6.684;2022-07-23T15:05:00;28.76;-6.00
19340;HTU21D;9804;52.350;6.684;2022-07-23T15:07:27;28.83;-6.00
19340;HTU21D;9804;52.350;6.684;2022-07-23T15:09:52;28.98;-6.00
19340;HTU21D;9804;52.350;6.684;2022-07-23T15:12:18;29.18;-6.00
19340;HTU21D;9804;52.350;6.684;2022-07-23T15:14:43;29.73;-6.00
19340;HTU21D;9804;52.350;6.684;2022-07-23T15:17:09;29.62;-6.00
19340;HTU21D;9804;52.350;6.684;2022-07-23T15:19:35;29.51;-6.00
19340;HTU21D;9804;52.350;6.684;2022-07-23T15:22:00;28.85;-6.00
19340;HTU21D;9804;52.350;6.684;2022-07-23T15:24:25;29.98;-6.00
19340;HTU21D;9804;52.350;6.684;2022-07-23T15:26:51;30.21;-6.00
19340;HTU21D;9804;52.350;6.684;2022-07-23T15:29:16;29.87;-6.00
19340;HTU21D;9804;52.350;6.684;2022-07-23T15:31:41;30.25;-6.00
19340;HTU21D;9804;52.350;6.684;2022-07-23T15:34:07;29.14;-6.00
19340;HTU21D;9804;52.350;6.684;2022-07-23T15:36:32;29.12;-6.00
19340;HTU21D;9804;52.350;6.684;2022-07-23T15:38:58;30.15;-6.00
19340;HTU21D;9804;52.350;6.684;2022-07-23T15:41:23;29.17;-6.00
19340;HTU21D;9804;52.350;6.684;2022-07-23T15:43:50;28.79;-6.00
19340;HTU21D;9804;52.350;6.684;2022-07-23T15:46:16;28.89;-6.00
19340;HTU21D;9804;52.350;6.684;2022-07-23T15:48:43;28.29;-6.00
19340;HTU21D;9804;52.350;6.684;2022-07-23T15:51:08;29.01;-6.00
19340;HTU21D;9804;52.350;6.684;2022-07-23T15:53:34;29.39;-6.00
19340;HTU21D;9804;52.350;6.684;2022-07-23T15:55:59;29.00;-6.00
19340;HTU21D;9804;52.350;6.684;2022-07-23T15:58:27;30.28;-6.00